Terminal Aerodrome Forecast
Issued by NWS Tulsa, OK

Home | Current Version | Previous Version | Text Only | Print | Product List | Glossary On
Versions: 1 2 3 4 5 6 7 8 9 10 11 12
000
FTUS44 KTSA 311700
TAFTUL
TAF
KTUL 311725Z 3118/0118 16008KT P6SM -RA OVC070
     FM010000 16007KT 6SM -RA OVC040
     FM010300 16005KT 3SM RA BR OVC015
     FM010900 VRB05KT 2SM -RA BR OVC007
     FM011300 27010KT 4SM BR OVC007
     FM011600 31015KT 5SM BR OVC015=

USA.gov is the U.S. government's official web portal to all federal, state and local government web resources and services.